Time;durP1;ratioP1;P1;durP2;ratioP2;P2;SDS_P1;SDS_P2;PMS_P1;PMS_P2;Temp;Humidity;BMP_temperature;BMP_pressure;BME280_temperature;BME280_humidity;BME280_pressure;Samples;Min_cycle;Max_cycle;Signal;HPM_P1;HPM_P2
2023/12/29 00:01:47;;;;;;;10.67;1.97;;;;;10.70;100467.00;;;;9936928;24;20640;-87
2023/12/29 00:06:49;;;;;;;8.37;1.77;;;;;10.60;100459.00;;;;9835506;30;20281;-85
2023/12/29 00:12:01;;;;;;;6.57;1.57;;;;;10.50;100452.00;;;;9901322;24;20231;-87
2023/12/29 00:17:03;;;;;;;13.27;2.27;;;;;10.50;100455.00;;;;10153608;24;20243;-85
2023/12/29 00:22:04;;;;;;;7.13;1.90;;;;;10.60;100436.00;;;;9848644;29;20229;-87
2023/12/29 00:27:05;;;;;;;8.07;1.87;;;;;10.60;100431.00;;;;9856443;29;20232;-85
2023/12/29 00:32:07;;;;;;;8.17;1.87;;;;;10.60;100448.00;;;;9862226;29;20248;-88
2023/12/29 00:37:08;;;;;;;11.50;2.03;;;;;10.60;100433.00;;;;9828224;29;20228;-88
2023/12/29 00:42:10;;;;;;;8.30;1.90;;;;;10.60;100425.00;;;;9842354;29;20293;-85
2023/12/29 00:47:11;;;;;;;11.47;2.13;;;;;10.50;100422.00;;;;10205413;24;20622;-84
2023/12/29 00:52:12;;;;;;;11.63;2.20;;;;;10.50;100424.00;;;;10355128;24;20238;-86
2023/12/29 00:57:13;;;;;;;14.07;2.13;;;;;10.50;100441.00;;;;9927662;29;20235;-85
2023/12/29 01:02:15;;;;;;;11.10;1.90;;;;;10.60;100427.00;;;;9892553;29;20252;-86
2023/12/29 01:07:16;;;;;;;16.33;2.60;;;;;10.60;100418.00;;;;9974939;24;20243;-85
2023/12/29 01:12:18;;;;;;;9.60;2.20;;;;;10.50;100409.00;;;;9864510;29;20239;-82
2023/12/29 01:17:22;;;;;;;7.97;1.80;;;;;10.50;100399.00;;;;9861204;29;20235;-81
2023/12/29 01:22:23;;;;;;;13.67;2.27;;;;;10.60;100404.00;;;;9882141;29;20238;-82
2023/12/29 01:27:25;;;;;;;7.50;1.73;;;;;10.60;100403.00;;;;9864357;29;20239;-82
2023/12/29 01:32:26;;;;;;;7.03;2.17;;;;;10.60;100406.00;;;;9837923;29;20276;-82
2023/12/29 01:37:28;;;;;;;12.10;2.10;;;;;10.50;100387.00;;;;9850880;29;20227;-82
2023/12/29 01:42:29;;;;;;;9.70;1.90;;;;;10.50;100379.00;;;;9840919;29;20932;-82
2023/12/29 01:47:31;;;;;;;9.27;1.67;;;;;10.50;100379.00;;;;9862442;29;20227;-82
2023/12/29 01:52:33;;;;;;;13.67;2.30;;;;;10.50;100389.00;;;;9874363;29;20318;-83
2023/12/29 01:57:36;;;;;;;12.90;1.93;;;;;10.50;100377.00;;;;9849022;29;20231;-82
2023/12/29 02:02:37;;;;;;;8.97;1.83;;;;;10.50;100400.00;;;;9867077;29;20239;-82
2023/12/29 02:07:40;;;;;;;7.93;1.90;;;;;10.60;100398.00;;;;9853157;29;20311;-82
2023/12/29 02:12:42;;;;;;;9.83;1.43;;;;;10.60;100397.00;;;;9859898;29;20239;-83
2023/12/29 02:17:52;;;;;;;8.10;1.90;;;;;10.50;100412.00;;;;9857058;29;20255;-82
2023/12/29 02:22:54;;;;;;;9.07;1.90;;;;;10.60;100382.00;;;;9893372;29;20235;-87
2023/12/29 02:28:13;;;;;;;8.03;1.60;;;;;10.60;100377.00;;;;9859996;29;20291;-86
2023/12/29 02:33:19;;;;;;;6.50;1.87;;;;;10.60;100398.00;;;;9878632;29;20361;-87
2023/12/29 02:38:21;;;;;;;11.33;2.20;;;;;10.60;100408.00;;;;10122183;24;20219;-85
2023/12/29 02:43:22;;;;;;;8.10;1.90;;;;;10.40;100413.00;;;;9967727;24;20244;-86
2023/12/29 02:48:23;;;;;;;9.57;1.90;;;;;10.30;100395.00;;;;9990297;24;20227;-89
2023/12/29 02:53:24;;;;;;;11.83;1.90;;;;;10.30;100418.00;;;;9874581;29;20226;-87
2023/12/29 02:58:26;;;;;;;10.33;2.10;;;;;10.40;100425.00;;;;9951863;24;20307;-86
2023/12/29 03:03:28;;;;;;;13.40;2.70;;;;;10.50;100437.00;;;;9867174;24;20298;-87
2023/12/29 03:08:31;;;;;;;10.20;1.73;;;;;10.40;100424.00;;;;9862299;29;20232;-85
2023/12/29 03:13:32;;;;;;;10.10;1.50;;;;;10.40;100413.00;;;;9893669;24;22665;-86
2023/12/29 03:18:33;;;;;;;10.93;1.90;;;;;10.30;100405.00;;;;9862518;30;20244;-87
2023/12/29 03:23:35;;;;;;;7.80;1.77;;;;;10.20;100409.00;;;;9947062;24;20345;-85
2023/12/29 03:28:36;;;;;;;11.47;2.57;;;;;10.20;100399.00;;;;9887063;29;20262;-79
2023/12/29 03:33:37;;;;;;;7.70;1.93;;;;;10.20;100392.00;;;;9868712;29;20242;-84
2023/12/29 03:38:38;;;;;;;7.60;1.90;;;;;10.10;100386.00;;;;9859368;29;20910;-82
2023/12/29 03:43:40;;;;;;;12.87;2.20;;;;;10.10;100379.00;;;;9866009;29;20809;-84
2023/12/29 03:48:41;;;;;;;9.57;1.80;;;;;10.00;100372.00;;;;9850854;29;20246;-83
2023/12/29 03:53:42;;;;;;;7.37;1.67;;;;;10.00;100381.00;;;;9835322;30;20235;-82
2023/12/29 03:58:45;;;;;;;10.33;1.90;;;;;9.90;100367.00;;;;9840038;29;20243;-85
2023/12/29 04:03:46;;;;;;;11.40;1.83;;;;;9.90;100368.00;;;;9865040;29;20641;-83
2023/12/29 04:08:47;;;;;;;7.23;1.90;;;;;9.90;100375.00;;;;9858460;29;20862;-82
2023/12/29 04:13:48;;;;;;;14.83;4.40;;;;;9.90;100363.00;;;;9844371;29;20306;-84
2023/12/29 04:18:50;;;;;;;9.37;2.00;;;;;9.90;100356.00;;;;9871588;29;20265;-84
2023/12/29 04:23:51;;;;;;;11.73;2.70;;;;;9.90;100356.00;;;;9857645;29;20291;-84
2023/12/29 04:28:52;;;;;;;4.83;1.80;;;;;9.80;100359.00;;;;9855313;30;20247;-83
2023/12/29 04:33:53;;;;;;;9.87;1.93;;;;;9.80;100356.00;;;;9854502;29;20260;-83
2023/12/29 04:38:54;;;;;;;13.37;2.80;;;;;9.80;100367.00;;;;9857476;29;20233;-83
2023/12/29 04:43:56;;;;;;;9.80;2.53;;;;;9.70;100367.00;;;;9857134;29;20239;-85
2023/12/29 04:48:58;;;;;;;9.60;1.77;;;;;9.80;100366.00;;;;9872410;29;20226;-84
2023/12/29 04:53:59;;;;;;;13.40;2.33;;;;;9.80;100363.00;;;;9852938;29;20235;-83
2023/12/29 04:59:02;;;;;;;13.27;2.23;;;;;9.80;100387.00;;;;9839032;29;20292;-82
2023/12/29 05:04:03;;;;;;;7.87;1.17;;;;;9.90;100365.00;;;;9840080;29;21392;-83
2023/12/29 05:09:04;;;;;;;6.30;1.40;;;;;9.90;100371.00;;;;9838565;29;20232;-85
2023/12/29 05:14:05;;;;;;;9.93;2.53;;;;;9.90;100373.00;;;;9833835;29;20235;-85
2023/12/29 05:19:07;;;;;;;10.37;2.30;;;;;9.90;100361.00;;;;9850434;29;20232;-83
2023/12/29 05:24:08;;;;;;;9.13;1.87;;;;;9.90;100353.00;;;;9863876;29;20260;-84
2023/12/29 05:29:09;;;;;;;6.20;2.10;;;;;9.90;100338.00;;;;9840461;29;20232;-87
2023/12/29 05:34:11;;;;;;;13.47;2.73;;;;;9.90;100344.00;;;;9857738;29;20289;-83
2023/12/29 05:39:12;;;;;;;12.17;2.20;;;;;10.00;100335.00;;;;9854544;29;20235;-83
2023/12/29 05:44:13;;;;;;;5.23;2.50;;;;;10.00;100334.00;;;;9846282;29;21014;-84
2023/12/29 05:49:14;;;;;;;10.57;1.63;;;;;10.00;100326.00;;;;9839448;29;20296;-83
2023/12/29 05:54:15;;;;;;;11.57;2.30;;;;;10.00;100339.00;;;;9855956;29;20950;-83
2023/12/29 05:59:17;;;;;;;11.27;2.57;;;;;10.00;100337.00;;;;9843887;29;20243;-84
2023/12/29 06:04:18;;;;;;;11.27;2.60;;;;;9.90;100345.00;;;;9849425;29;20318;-84
2023/12/29 06:09:20;;;;;;;9.57;2.00;;;;;9.70;100353.00;;;;9836021;29;20232;-80
2023/12/29 06:14:21;;;;;;;10.77;2.10;;;;;9.40;100360.00;;;;9849095;29;20271;-81
2023/12/29 06:19:22;;;;;;;14.33;2.20;;;;;9.20;100341.00;;;;9858525;29;20644;-81
2023/12/29 06:24:23;;;;;;;12.17;2.17;;;;;9.10;100342.00;;;;9882064;29;20576;-80
2023/12/29 06:29:24;;;;;;;6.90;1.60;;;;;9.00;100349.00;;;;9857069;29;20910;-81
2023/12/29 06:34:25;;;;;;;9.00;1.73;;;;;9.00;100347.00;;;;9856465;29;20318;-80
2023/12/29 06:39:27;;;;;;;6.73;2.20;;;;;9.00;100357.00;;;;9859331;29;20227;-80
2023/12/29 06:44:29;;;;;;;8.87;1.83;;;;;9.00;100357.00;;;;9845704;29;20273;-80
2023/12/29 06:49:30;;;;;;;4.87;1.63;;;;;9.00;100357.00;;;;9852631;29;20782;-81
2023/12/29 06:54:31;;;;;;;7.30;1.47;;;;;9.00;100355.00;;;;9866327;29;20232;-81
2023/12/29 06:59:32;;;;;;;10.60;1.77;;;;;9.00;100369.00;;;;9855216;29;20267;-80
2023/12/29 07:04:34;;;;;;;6.50;1.60;;;;;9.00;100370.00;;;;9878308;29;20243;-81
2023/12/29 07:09:38;;;;;;;5.77;1.57;;;;;9.00;100377.00;;;;9873266;29;20606;-81
2023/12/29 07:14:41;;;;;;;7.80;1.50;;;;;9.00;100371.00;;;;9831570;29;20231;-80
2023/12/29 07:19:42;;;;;;;9.67;1.90;;;;;9.00;100349.00;;;;9884875;29;20230;-82
2023/12/29 07:24:44;;;;;;;5.03;1.23;;;;;9.00;100352.00;;;;9853832;29;20906;-80
2023/12/29 07:29:45;;;;;;;13.33;1.80;;;;;9.00;100350.00;;;;9849018;29;20664;-82
2023/12/29 07:34:46;;;;;;;4.50;1.20;;;;;9.00;100353.00;;;;9843978;29;21854;-81
2023/12/29 07:39:48;;;;;;;4.47;0.90;;;;;9.10;100359.00;;;;9838974;29;20643;-82
2023/12/29 07:44:51;;;;;;;3.40;1.30;;;;;9.10;100384.00;;;;9870568;29;20250;-82
2023/12/29 07:49:52;;;;;;;7.07;1.47;;;;;9.00;100382.00;;;;9834203;29;20267;-81
2023/12/29 07:54:53;;;;;;;13.10;2.07;;;;;9.00;100391.00;;;;9878066;29;20234;-82
2023/12/29 07:59:55;;;;;;;9.97;1.90;;;;;9.00;100377.00;;;;9857743;29;20812;-81
2023/12/29 08:04:56;;;;;;;4.33;1.53;;;;;9.00;100369.00;;;;9840287;29;20239;-82
2023/12/29 08:09:59;;;;;;;7.27;2.17;;;;;9.00;100366.00;;;;9855480;29;20238;-81
2023/12/29 08:15:00;;;;;;;8.70;2.53;;;;;9.00;100356.00;;;;9851969;29;20717;-81
2023/12/29 08:20:05;;;;;;;5.57;1.63;;;;;9.10;100367.00;;;;9870473;29;20959;-87
2023/12/29 08:25:07;;;;;;;5.80;1.73;;;;;9.20;100365.00;;;;9849267;29;20236;-87
2023/12/29 08:30:09;;;;;;;7.17;2.20;;;;;9.20;100368.00;;;;9849772;29;20243;-88
2023/12/29 08:35:10;;;;;;;9.33;1.73;;;;;9.30;100381.00;;;;9852792;29;20948;-89
2023/12/29 08:40:11;;;;;;;11.87;2.80;;;;;9.30;100368.00;;;;9838407;29;20227;-86
2023/12/29 08:45:13;;;;;;;12.13;1.80;;;;;9.40;100380.00;;;;9880382;29;20251;-86
2023/12/29 08:50:15;;;;;;;3.63;1.57;;;;;9.50;100384.00;;;;9855333;29;20227;-89
2023/12/29 08:55:16;;;;;;;7.43;1.77;;;;;9.50;100382.00;;;;9874977;29;20237;-86
2023/12/29 09:00:17;;;;;;;9.67;1.93;;;;;9.50;100410.00;;;;9868823;29;20227;-87
2023/12/29 09:05:18;;;;;;;14.77;2.50;;;;;9.80;100407.00;;;;9851534;29;20236;-86
2023/12/29 09:10:21;;;;;;;10.80;1.80;;;;;10.00;100397.00;;;;9871402;29;20235;-86
2023/12/29 09:15:23;;;;;;;5.23;1.87;;;;;10.10;100404.00;;;;9863712;29;20611;-86
2023/12/29 09:20:24;;;;;;;10.20;1.90;;;;;10.10;100417.00;;;;9846533;29;20312;-86
2023/12/29 09:25:26;;;;;;;10.83;1.93;;;;;10.10;100409.00;;;;9839399;29;20243;-88
2023/12/29 09:30:27;;;;;;;11.27;2.20;;;;;10.30;100410.00;;;;9880633;29;20289;-81
2023/12/29 09:35:28;;;;;;;8.33;1.97;;;;;10.50;100406.00;;;;9834900;29;20502;-81
2023/12/29 09:40:29;;;;;;;2.40;1.00;;;;;10.50;100409.00;;;;9841739;29;20698;-81
2023/12/29 09:45:33;;;;;;;3.67;1.20;;;;;10.30;100411.00;;;;9834308;29;20235;-81
2023/12/29 09:50:35;;;;;;;6.00;1.73;;;;;10.10;100413.00;;;;9840482;29;20312;-80
2023/12/29 09:55:37;;;;;;;7.27;2.13;;;;;10.20;100417.00;;;;9857598;29;20270;-81
2023/12/29 10:00:39;;;;;;;7.57;2.23;;;;;10.10;100408.00;;;;9871670;29;20327;-82
2023/12/29 10:05:40;;;;;;;5.10;1.43;;;;;10.10;100411.00;;;;9900383;29;20246;-81
2023/12/29 10:10:42;;;;;;;7.63;1.90;;;;;10.10;100410.00;;;;9862738;29;20694;-81
2023/12/29 10:16:15;;;;;;;9.30;2.00;;;;;10.10;100412.00;;;;9854182;29;20431;-81
2023/12/29 10:21:29;;;;;;;8.23;1.97;;;;;10.40;100420.00;;;;9841954;29;20388;-81
2023/12/29 10:26:31;;;;;;;12.83;2.37;;;;;10.40;100410.00;;;;9868157;29;20330;-82
2023/12/29 10:31:32;;;;;;;9.13;2.10;;;;;10.30;100415.00;;;;9850583;29;20243;-82
2023/12/29 10:36:46;;;;;;;10.87;2.20;;;;;10.70;100399.00;;;;9858317;29;20301;-82
2023/12/29 10:41:48;;;;;;;9.13;2.13;;;;;11.00;100406.00;;;;9848787;29;20223;-81
2023/12/29 10:46:50;;;;;;;9.73;2.60;;;;;11.20;100399.00;;;;9852537;29;20239;-81
2023/12/29 10:51:51;;;;;;;6.60;1.93;;;;;11.40;100416.00;;;;9859620;29;20292;-82
2023/12/29 10:57:02;;;;;;;5.93;1.70;;;;;11.20;100420.00;;;;9864649;29;20231;-84
2023/12/29 11:02:04;;;;;;;9.47;2.47;;;;;10.90;100408.00;;;;9847015;29;20911;-84
2023/12/29 11:07:12;;;;;;;6.03;1.67;;;;;10.60;100406.00;;;;9852467;29;20312;-88
2023/12/29 11:12:13;;;;;;;9.77;2.10;;;;;10.50;100392.00;;;;9860490;29;20236;-84
2023/12/29 11:17:16;;;;;;;12.57;2.40;;;;;10.60;100400.00;;;;9836525;29;20227;-85
2023/12/29 11:22:18;;;;;;;11.07;2.27;;;;;10.70;100403.00;;;;9848649;29;20403;-85
2023/12/29 11:27:21;;;;;;;8.40;2.17;;;;;10.70;100395.00;;;;9849321;29;20243;-85
2023/12/29 11:32:39;;;;;;;13.80;2.83;;;;;10.70;100384.00;;;;9855321;29;20231;-84
2023/12/29 11:37:57;;;;;;;14.83;3.00;;;;;10.60;100399.00;;;;9850920;29;20232;-82
2023/12/29 11:43:03;;;;;;;5.57;2.10;;;;;10.60;100390.00;;;;9862577;29;20243;-84
2023/12/29 11:48:05;;;;;;;13.53;2.13;;;;;10.60;100391.00;;;;9869073;29;20246;-84
2023/12/29 11:53:10;;;;;;;8.73;2.13;;;;;10.50;100367.00;;;;9852157;29;20330;-83
2023/12/29 11:58:28;;;;;;;7.43;2.07;;;;;10.60;100376.00;;;;9862105;29;20247;-84
2023/12/29 12:03:34;;;;;;;6.13;2.20;;;;;10.50;100376.00;;;;9847855;29;20250;-84
2023/12/29 12:08:38;;;;;;;9.40;2.20;;;;;10.40;100370.00;;;;9853564;29;20235;-83
2023/12/29 12:13:43;;;;;;;6.23;1.40;;;;;10.30;100363.00;;;;9846105;29;20235;-84
2023/12/29 12:18:44;;;;;;;7.83;1.90;;;;;10.20;100365.00;;;;9897768;24;20262;-84
2023/12/29 12:23:46;;;;;;;8.57;2.27;;;;;10.20;100378.00;;;;9848696;29;20231;-84
2023/12/29 12:28:52;;;;;;;4.77;1.70;;;;;10.00;100377.00;;;;9838557;29;20269;-84
2023/12/29 12:33:57;;;;;;;7.33;2.07;;;;;9.90;100381.00;;;;9861123;29;20598;-85
2023/12/29 12:38:58;;;;;;;3.20;1.00;;;;;9.80;100373.00;;;;9853803;29;20327;-84
2023/12/29 12:44:11;;;;;;;3.97;1.37;;;;;9.40;100371.00;;;;9843796;29;20230;-84
2023/12/29 12:49:12;;;;;;;1.10;0.70;;;;;9.30;100371.00;;;;9848777;29;20242;-84
2023/12/29 12:54:18;;;;;;;3.07;1.63;;;;;9.20;100361.00;;;;9855176;29;20845;-83
2023/12/29 12:59:20;;;;;;;1.83;0.70;;;;;9.30;100344.00;;;;9868095;29;20276;-81
2023/12/29 13:04:22;;;;;;;3.60;0.87;;;;;9.70;100331.00;;;;9852333;29;20326;-80
2023/12/29 13:09:23;;;;;;;3.40;0.80;;;;;10.00;100337.00;;;;9837050;29;20227;-82
2023/12/29 13:14:25;;;;;;;1.87;1.30;;;;;10.00;100332.00;;;;9851890;29;20235;-81
2023/12/29 13:19:27;;;;;;;5.03;1.50;;;;;10.10;100319.00;;;;9862123;29;20235;-81
2023/12/29 13:24:29;;;;;;;5.53;1.90;;;;;10.30;100311.00;;;;9845714;29;20239;-82
2023/12/29 13:29:31;;;;;;;5.20;1.43;;;;;10.40;100301.00;;;;9849991;29;20304;-84
2023/12/29 13:34:49;;;;;;;5.20;1.47;;;;;10.50;100293.00;;;;9848295;29;20235;-82
2023/12/29 13:39:59;;;;;;;4.50;1.10;;;;;10.50;100287.00;;;;9836160;29;20243;-83
2023/12/29 13:45:04;;;;;;;5.17;1.27;;;;;10.50;100284.00;;;;9831026;29;20235;-83
2023/12/29 13:50:09;;;;;;;8.87;1.30;;;;;10.40;100304.00;;;;9848842;29;20591;-87
2023/12/29 13:55:10;;;;;;;4.90;1.30;;;;;10.20;100300.00;;;;9843428;29;20240;-84
2023/12/29 14:00:22;;;;;;;12.37;1.47;;;;;10.10;100297.00;;;;9844286;29;20305;-83
2023/12/29 14:05:43;;;;;;;4.83;1.30;;;;;10.00;100291.00;;;;9861950;29;20231;-83
2023/12/29 14:10:45;;;;;;;2.43;1.20;;;;;10.10;100291.00;;;;9877239;29;20235;-84
2023/12/29 14:15:51;;;;;;;8.90;1.77;;;;;10.20;100286.00;;;;9842674;29;20254;-84
2023/12/29 14:20:52;;;;;;;4.60;1.30;;;;;10.20;100288.00;;;;9852004;29;20231;-88
2023/12/29 14:26:02;;;;;;;6.73;1.60;;;;;10.20;100288.00;;;;9858180;29;20235;-88
2023/12/29 14:31:03;;;;;;;2.27;1.30;;;;;10.20;100289.00;;;;9847577;29;20255;-88
2023/12/29 14:36:05;;;;;;;4.03;1.50;;;;;10.10;100302.00;;;;9857351;29;20239;-83
2023/12/29 14:41:06;;;;;;;4.40;1.57;;;;;10.00;100301.00;;;;9849620;29;20911;-81
2023/12/29 14:46:07;;;;;;;2.70;1.20;;;;;10.10;100291.00;;;;9853413;29;20263;-82
2023/12/29 14:51:08;;;;;;;5.03;1.60;;;;;10.10;100288.00;;;;9873541;29;20235;-83
2023/12/29 14:56:10;;;;;;;5.57;1.23;;;;;10.00;100290.00;;;;9858548;29;20300;-82
2023/12/29 15:01:11;;;;;;;6.93;1.20;;;;;10.00;100270.00;;;;9908827;29;20933;-83
2023/12/29 15:06:13;;;;;;;2.37;0.93;;;;;9.90;100272.00;;;;9876547;29;20331;-84
2023/12/29 15:11:14;;;;;;;3.53;1.00;;;;;9.80;100274.00;;;;9845092;29;20235;-85
2023/12/29 15:16:16;;;;;;;2.23;1.17;;;;;9.80;100287.00;;;;9856415;30;21013;-86
2023/12/29 15:21:17;;;;;;;3.10;1.13;;;;;9.80;100278.00;;;;9861716;30;20247;-84
2023/12/29 15:26:18;;;;;;;9.00;2.10;;;;;9.90;100279.00;;;;9874827;29;20255;-85
2023/12/29 15:31:19;;;;;;;7.07;2.20;;;;;9.90;100284.00;;;;9834579;29;20228;-83
2023/12/29 15:36:22;;;;;;;13.03;2.10;;;;;9.80;100295.00;;;;9845537;29;20297;-83
2023/12/29 15:41:23;;;;;;;6.67;1.43;;;;;9.80;100263.00;;;;9840598;29;20303;-83
2023/12/29 15:46:25;;;;;;;5.47;1.50;;;;;9.80;100266.00;;;;9857502;29;20896;-83
2023/12/29 15:51:26;;;;;;;5.37;1.67;;;;;9.80;100266.00;;;;9840761;29;20236;-83
2023/12/29 15:56:28;;;;;;;6.57;2.00;;;;;9.80;100268.00;;;;9868420;29;20239;-83
2023/12/29 16:01:29;;;;;;;7.70;2.07;;;;;9.90;100267.00;;;;9855496;29;20703;-83
2023/12/29 16:06:31;;;;;;;6.33;2.03;;;;;9.90;100250.00;;;;9868788;29;20847;-82
2023/12/29 16:11:33;;;;;;;11.40;2.20;;;;;9.80;100249.00;;;;9854174;29;20271;-83
2023/12/29 16:16:38;;;;;;;11.90;2.40;;;;;9.70;100259.00;;;;9865205;29;20227;-82
2023/12/29 16:21:39;;;;;;;6.57;1.80;;;;;9.60;100238.00;;;;9854454;29;20282;-82
2023/12/29 16:26:42;;;;;;;10.40;2.13;;;;;9.60;100245.00;;;;9862017;29;20274;-82
2023/12/29 16:31:48;;;;;;;8.13;2.00;;;;;9.50;100262.00;;;;9852113;29;20244;-82
2023/12/29 16:37:00;;;;;;;8.60;1.70;;;;;9.50;100262.00;;;;9859889;29;20242;-83
2023/12/29 16:42:03;;;;;;;7.20;2.03;;;;;9.40;100257.00;;;;9853731;29;20227;-79
2023/12/29 16:47:04;;;;;;;9.03;1.67;;;;;9.50;100260.00;;;;9866350;29;20240;-80
2023/12/29 16:52:06;;;;;;;8.73;2.27;;;;;9.60;100244.00;;;;9866148;29;20695;-79
2023/12/29 16:57:07;;;;;;;10.03;2.40;;;;;9.60;100256.00;;;;9858311;29;20251;-79
2023/12/29 17:02:09;;;;;;;5.90;2.13;;;;;9.60;100254.00;;;;9854386;29;20322;-80
2023/12/29 17:07:10;;;;;;;8.87;2.37;;;;;9.70;100275.00;;;;9858610;29;20242;-80
2023/12/29 17:12:12;;;;;;;6.33;1.80;;;;;9.80;100279.00;;;;9857360;29;20235;-81
2023/12/29 17:17:13;;;;;;;4.87;1.90;;;;;9.80;100288.00;;;;9854471;29;20239;-80
2023/12/29 17:22:16;;;;;;;10.93;2.07;;;;;9.90;100300.00;;;;9838929;29;20235;-80
2023/12/29 17:27:17;;;;;;;13.27;2.77;;;;;9.80;100313.00;;;;9835028;29;20266;-80
2023/12/29 17:32:19;;;;;;;9.50;2.00;;;;;9.80;100302.00;;;;9850331;30;20254;-80
2023/12/29 17:37:20;;;;;;;9.27;2.50;;;;;9.70;100303.00;;;;9833521;29;20227;-80
2023/12/29 17:42:22;;;;;;;8.77;3.63;;;;;9.70;100317.00;;;;9876483;29;20230;-80
2023/12/29 17:47:23;;;;;;;8.50;2.30;;;;;9.60;100325.00;;;;9843968;29;20779;-80
2023/12/29 17:52:24;;;;;;;8.67;2.47;;;;;9.50;100330.00;;;;9836851;29;20259;-80
2023/12/29 17:57:25;;;;;;;9.57;2.90;;;;;9.50;100342.00;;;;9863904;29;20253;-80
2023/12/29 18:02:31;;;;;;;10.27;2.80;;;;;9.60;100349.00;;;;9851221;29;20239;-80
2023/12/29 18:07:32;;;;;;;6.90;2.57;;;;;9.70;100363.00;;;;9856165;29;20255;-81
2023/12/29 18:12:34;;;;;;;11.03;3.17;;;;;9.70;100351.00;;;;9832038;29;20231;-80
2023/12/29 18:17:37;;;;;;;5.87;2.40;;;;;9.70;100363.00;;;;9848208;29;20251;-80
2023/12/29 18:22:38;;;;;;;8.30;2.60;;;;;9.70;100385.00;;;;9857135;29;20274;-80
2023/12/29 18:27:39;;;;;;;12.33;2.60;;;;;9.60;100371.00;;;;9850365;29;20296;-80
2023/12/29 18:32:41;;;;;;;10.60;2.90;;;;;9.70;100374.00;;;;9860331;29;20227;-80
2023/12/29 18:37:46;;;;;;;8.20;2.57;;;;;9.70;100389.00;;;;9836100;29;20228;-79
2023/12/29 18:42:47;;;;;;;14.37;2.93;;;;;9.80;100388.00;;;;9875021;29;20932;-81
2023/12/29 18:47:49;;;;;;;5.83;2.10;;;;;9.80;100392.00;;;;9860891;29;20239;-80
2023/12/29 18:52:50;;;;;;;6.53;2.40;;;;;9.70;100407.00;;;;9837375;29;20251;-80
2023/12/29 18:57:52;;;;;;;11.73;2.73;;;;;9.70;100409.00;;;;9839471;30;20234;-80
2023/12/29 19:02:54;;;;;;;9.63;2.70;;;;;9.60;100430.00;;;;9856521;29;20244;-80
2023/12/29 19:07:55;;;;;;;11.13;2.53;;;;;9.60;100425.00;;;;9860122;29;20747;-80
2023/12/29 19:12:56;;;;;;;10.13;2.67;;;;;9.40;100431.00;;;;9862073;29;20250;-80
2023/12/29 19:18:00;;;;;;;14.57;2.90;;;;;9.30;100435.00;;;;9867228;29;20266;-80
2023/12/29 19:23:03;;;;;;;18.13;3.40;;;;;9.20;100440.00;;;;9876474;29;20239;-80
2023/12/29 19:28:05;;;;;;;16.23;3.30;;;;;9.10;100447.00;;;;9859535;29;20749;-80
2023/12/29 19:33:06;;;;;;;12.37;2.77;;;;;9.00;100439.00;;;;9858104;29;20235;-80
2023/12/29 19:38:07;;;;;;;15.13;2.90;;;;;9.00;100436.00;;;;9854744;29;20343;-79
2023/12/29 19:43:09;;;;;;;16.37;4.43;;;;;9.00;100438.00;;;;9859140;29;20330;-81
2023/12/29 19:48:10;;;;;;;21.83;3.97;;;;;8.90;100436.00;;;;9870300;29;20244;-80
2023/12/29 19:53:11;;;;;;;14.10;3.50;;;;;8.80;100429.00;;;;9854341;29;20231;-80
2023/12/29 19:58:12;;;;;;;16.93;3.47;;;;;8.80;100435.00;;;;9859673;29;20344;-81
2023/12/29 20:03:14;;;;;;;23.73;3.93;;;;;8.80;100433.00;;;;9846345;29;20240;-81
2023/12/29 20:08:17;;;;;;;18.63;3.80;;;;;8.90;100437.00;;;;9838816;29;20329;-80
2023/12/29 20:13:18;;;;;;;20.73;3.83;;;;;9.00;100448.00;;;;9859168;29;20330;-80
2023/12/29 20:18:19;;;;;;;17.03;3.70;;;;;9.00;100446.00;;;;9850765;29;20775;-81
2023/12/29 20:23:20;;;;;;;18.87;3.73;;;;;8.90;100446.00;;;;9867520;29;20324;-81
2023/12/29 20:28:22;;;;;;;22.23;3.83;;;;;8.80;100449.00;;;;9847707;29;20320;-82
2023/12/29 20:33:23;;;;;;;19.17;3.93;;;;;8.70;100439.00;;;;9861565;29;20243;-80
2023/12/29 20:38:24;;;;;;;11.33;4.07;;;;;8.70;100455.00;;;;9839639;29;20239;-80
2023/12/29 20:43:25;;;;;;;17.33;3.93;;;;;8.80;100461.00;;;;9851275;29;20235;-79
2023/12/29 20:48:27;;;;;;;12.53;2.87;;;;;8.70;100454.00;;;;9860909;29;20239;-80
2023/12/29 20:53:28;;;;;;;11.73;3.27;;;;;8.60;100456.00;;;;9845158;29;20282;-79
2023/12/29 20:58:29;;;;;;;20.10;2.83;;;;;8.50;100468.00;;;;9845152;29;20244;-81
2023/12/29 21:03:30;;;;;;;15.17;2.57;;;;;8.50;100479.00;;;;9872659;29;20718;-81
2023/12/29 21:08:32;;;;;;;18.10;3.80;;;;;8.50;100482.00;;;;9838689;29;20235;-79
2023/12/29 21:13:33;;;;;;;15.10;4.03;;;;;8.50;100481.00;;;;9845821;29;20246;-80
2023/12/29 21:18:35;;;;;;;17.67;4.83;;;;;8.50;100465.00;;;;9867892;29;21010;-80
2023/12/29 21:23:36;;;;;;;18.40;3.23;;;;;8.50;100475.00;;;;9846757;29;20346;-79
2023/12/29 21:28:38;;;;;;;21.47;4.10;;;;;8.50;100485.00;;;;9843916;29;20231;-79
2023/12/29 21:33:39;;;;;;;22.57;4.37;;;;;8.60;100483.00;;;;9834336;29;20291;-81
2023/12/29 21:38:41;;;;;;;17.87;3.40;;;;;8.60;100504.00;;;;9854073;29;20237;-79
2023/12/29 21:43:44;;;;;;;17.27;3.00;;;;;8.60;100497.00;;;;9852012;29;20242;-80
2023/12/29 21:48:45;;;;;;;23.97;4.10;;;;;8.60;100489.00;;;;9843005;29;20239;-79
2023/12/29 21:53:48;;;;;;;16.13;2.97;;;;;8.60;100495.00;;;;9851595;29;20650;-79
2023/12/29 21:58:50;;;;;;;21.10;3.00;;;;;8.50;100506.00;;;;9843049;29;20625;-79
2023/12/29 22:03:55;;;;;;;21.87;3.80;;;;;8.40;100510.00;;;;9848677;29;20273;-79
2023/12/29 22:08:57;;;;;;;20.90;3.23;;;;;8.30;100514.00;;;;9849542;29;20599;-80
2023/12/29 22:14:00;;;;;;;20.47;4.07;;;;;8.30;100517.00;;;;9851457;29;20231;-78
2023/12/29 22:19:05;;;;;;;18.67;3.93;;;;;8.30;100523.00;;;;9840816;29;20255;-79
2023/12/29 22:24:07;;;;;;;17.10;3.93;;;;;8.20;100532.00;;;;9840027;29;20242;-80
2023/12/29 22:29:08;;;;;;;19.37;3.20;;;;;8.30;100536.00;;;;9846697;29;20259;-77
2023/12/29 22:34:10;;;;;;;20.70;4.17;;;;;8.30;100544.00;;;;9850569;29;20318;-77
2023/12/29 22:39:11;;;;;;;15.50;3.27;;;;;8.30;100546.00;;;;9836183;29;20902;-78
2023/12/29 22:44:13;;;;;;;16.07;2.87;;;;;8.30;100549.00;;;;9856609;29;20243;-77
2023/12/29 22:49:14;;;;;;;13.53;3.00;;;;;8.40;100554.00;;;;9836258;29;20240;-77
2023/12/29 22:54:15;;;;;;;15.60;3.43;;;;;8.50;100553.00;;;;9846530;29;20808;-78
2023/12/29 22:59:16;;;;;;;11.87;2.30;;;;;8.50;100557.00;;;;9845174;29;20326;-77
2023/12/29 23:04:18;;;;;;;18.57;3.53;;;;;8.50;100558.00;;;;9840617;29;20922;-77
2023/12/29 23:09:19;;;;;;;12.03;2.47;;;;;8.40;100551.00;;;;9863210;29;20241;-78
2023/12/29 23:14:20;;;;;;;10.77;2.20;;;;;8.40;100568.00;;;;9843007;29;20257;-76
2023/12/29 23:19:21;;;;;;;16.93;3.20;;;;;8.40;100589.00;;;;9865093;29;20237;-78
2023/12/29 23:24:23;;;;;;;18.83;3.27;;;;;8.40;100578.00;;;;9846606;29;20881;-79
2023/12/29 23:29:24;;;;;;;13.87;2.77;;;;;8.30;100580.00;;;;9852578;29;20318;-80
2023/12/29 23:34:25;;;;;;;15.60;3.20;;;;;8.20;100590.00;;;;9844585;29;20590;-78
2023/12/29 23:39:26;;;;;;;11.40;2.67;;;;;8.20;100609.00;;;;9853611;29;20242;-84
2023/12/29 23:44:28;;;;;;;21.57;4.27;;;;;8.20;100600.00;;;;9849923;29;20242;-84
2023/12/29 23:49:29;;;;;;;14.17;2.27;;;;;8.10;100605.00;;;;9853449;29;20280;-83
2023/12/29 23:54:31;;;;;;;76.53;48.67;;;;;8.00;100602.00;;;;9853714;29;20315;-83
2023/12/29 23:59:32;;;;;;;19.40;3.23;;;;;7.80;100611.00;;;;9862154;29;20239;-84
